createdAt,value
2022-11-25T00:01:07.684Z,14.00
2022-11-25T00:03:36.080Z,12.50
2022-11-25T00:06:13.005Z,12.75
2022-11-25T00:08:40.570Z,10.00
2022-11-25T00:11:07.991Z,14.75
2022-11-25T00:13:35.528Z,13.00
2022-11-25T00:16:03.658Z,13.00
2022-11-25T00:18:31.111Z,13.00
2022-11-25T00:20:58.520Z,14.25
2022-11-25T00:23:31.970Z,12.00
2022-11-25T00:26:07.000Z,12.00
2022-11-25T00:28:34.407Z,12.25
2022-11-25T00:31:05.871Z,13.00
2022-11-25T00:33:33.283Z,15.25
2022-11-25T00:36:01.875Z,14.25
2022-11-25T00:38:30.556Z,14.00
2022-11-25T00:41:11.980Z,13.25
2022-11-25T00:43:57.089Z,14.00
2022-11-25T00:46:24.504Z,13.00
2022-11-25T00:48:51.929Z,13.25
2022-11-25T00:51:19.551Z,14.50
2022-11-25T00:53:48.264Z,12.50
2022-11-25T00:56:15.741Z,13.00
2022-11-25T00:58:43.409Z,13.50
2022-11-25T01:01:11.385Z,14.75
2022-11-25T01:03:39.017Z,14.00
2022-11-25T01:06:07.627Z,12.50
2022-11-25T01:08:35.712Z,12.50
2022-11-25T01:11:06.397Z,11.50
2022-11-25T01:13:33.817Z,12.00
2022-11-25T01:16:02.040Z,12.00
2022-11-25T01:18:29.627Z,14.00
2022-11-25T01:20:57.182Z,14.25
2022-11-25T01:23:25.682Z,13.00
2022-11-25T01:25:53.724Z,13.25
2022-11-25T01:28:22.451Z,13.25
2022-11-25T01:31:00.262Z,14.00
2022-11-25T01:33:27.681Z,12.50
2022-11-25T01:35:55.096Z,13.00
2022-11-25T01:38:22.823Z,12.00
2022-11-25T01:40:50.219Z,12.25
2022-11-25T01:43:17.646Z,9.00
2022-11-25T01:45:46.598Z,13.25
2022-11-25T01:48:15.818Z,12.50
2022-11-25T01:50:43.343Z,12.50
2022-11-25T01:53:11.605Z,14.75
2022-11-25T01:55:39.659Z,11.75
2022-11-25T01:58:08.022Z,13.00
2022-11-25T02:00:35.480Z,12.75
2022-11-25T02:03:06.222Z,13.25
2022-11-25T02:05:37.307Z,12.00
2022-11-25T02:08:04.920Z,11.50
2022-11-25T02:10:32.965Z,12.25
2022-11-25T02:13:00.379Z,13.75
2022-11-25T02:15:27.857Z,12.75
2022-11-25T02:17:55.271Z,13.00
2022-11-25T02:20:24.493Z,11.75
2022-11-25T02:22:59.762Z,12.25
2022-11-25T02:25:29.869Z,12.00
2022-11-25T02:27:58.610Z,11.25
2022-11-25T02:30:26.032Z,11.00
2022-11-25T02:32:54.347Z,11.00
2022-11-25T02:35:27.802Z,11.75
2022-11-25T02:37:56.695Z,12.00
2022-11-25T02:40:24.212Z,14.00
2022-11-25T02:42:52.919Z,12.00
2022-11-25T02:45:21.921Z,14.00
2022-11-25T02:47:49.347Z,11.25
2022-11-25T02:50:16.784Z,13.25
2022-11-25T02:52:45.190Z,12.25
2022-11-25T02:55:12.611Z,12.75
2022-11-25T02:57:40.069Z,11.75
2022-11-25T03:00:09.959Z,2.25
2022-11-25T03:02:37.808Z,2.25
2022-11-25T03:05:05.564Z,10.75
2022-11-25T03:07:32.995Z,11.75
2022-11-25T03:10:00.969Z,12.00
2022-11-25T03:12:29.543Z,13.25
2022-11-25T03:14:58.277Z,11.75
2022-11-25T03:17:27.020Z,10.50
2022-11-25T03:19:55.285Z,11.00
2022-11-25T03:22:22.732Z,7.25
2022-11-25T03:24:50.159Z,9.50
2022-11-25T03:27:17.576Z,11.00
2022-11-25T03:29:45.001Z,9.50
2022-11-25T03:32:13.334Z,10.25
2022-11-25T03:34:42.073Z,8.25
2022-11-25T03:37:10.080Z,11.25
2022-11-25T03:39:38.217Z,9.25
2022-11-25T03:42:07.183Z,9.50
2022-11-25T03:44:34.932Z,11.00
2022-11-25T03:47:02.653Z,10.50
2022-11-25T03:49:30.286Z,11.00
2022-11-25T03:51:59.020Z,10.00
2022-11-25T03:54:26.687Z,11.00
2022-11-25T03:57:19.110Z,10.00
2022-11-25T03:59:46.532Z,10.00
2022-11-25T04:02:14.757Z,9.25
2022-11-25T04:04:42.223Z,11.75
2022-11-25T04:07:10.971Z,10.25
2022-11-25T04:09:38.797Z,11.25
2022-11-25T04:12:25.587Z,10.00
2022-11-25T04:14:56.405Z,9.00
2022-11-25T04:17:23.874Z,10.75
2022-11-25T04:19:52.164Z,11.00
2022-11-25T04:22:20.873Z,10.00
2022-11-25T04:24:51.706Z,10.50
2022-11-25T04:27:24.449Z,8.25
2022-11-25T04:29:53.100Z,11.00
2022-11-25T04:32:22.806Z,9.25
2022-11-25T04:34:50.393Z,9.25
2022-11-25T04:37:18.692Z,10.00
2022-11-25T04:39:47.474Z,9.75
2022-11-25T04:42:34.454Z,8.00
2022-11-25T04:47:56.127Z,9.75
2022-11-25T04:50:24.071Z,10.00
2022-11-25T04:53:06.526Z,10.00
2022-11-25T04:55:35.405Z,9.00
2022-11-25T04:58:06.705Z,7.00
2022-11-25T05:00:34.859Z,10.00
2022-11-25T05:03:03.172Z,9.75
2022-11-25T05:05:32.092Z,8.00
2022-11-25T05:08:00.231Z,11.00
2022-11-25T05:10:28.336Z,8.00
2022-11-25T05:12:57.256Z,10.25
2022-11-25T05:15:24.682Z,8.75
2022-11-25T05:17:53.727Z,10.25
2022-11-25T05:20:35.352Z,10.25
2022-11-25T05:23:03.108Z,10.75
2022-11-25T05:25:30.959Z,9.75
2022-11-25T05:28:17.750Z,9.00
2022-11-25T05:30:45.629Z,10.00
2022-11-25T05:33:13.208Z,8.00
2022-11-25T05:35:40.664Z,10.00
2022-11-25T05:38:08.456Z,8.50
2022-11-25T05:40:37.085Z,9.00
2022-11-25T05:43:09.365Z,8.50
2022-11-25T05:45:40.818Z,10.00
2022-11-25T05:48:10.144Z,9.00
2022-11-25T05:50:37.793Z,9.00
2022-11-25T05:53:17.192Z,9.00
2022-11-25T05:55:45.290Z,10.25
2022-11-25T05:58:24.064Z,10.00
2022-11-25T06:00:56.015Z,9.75
2022-11-25T06:03:25.406Z,8.00
2022-11-25T06:05:52.895Z,9.00
2022-11-25T06:08:20.492Z,9.00
2022-11-25T06:10:47.939Z,9.00
2022-11-25T06:13:15.349Z,9.00
2022-11-25T06:15:43.099Z,8.50
2022-11-25T06:18:13.253Z,9.25
2022-11-25T06:20:40.700Z,8.50
2022-11-25T06:23:08.857Z,9.75
2022-11-25T06:25:37.788Z,10.00
2022-11-25T06:28:14.015Z,9.75
2022-11-25T06:30:47.033Z,8.00
2022-11-25T06:33:22.335Z,8.75
2022-11-25T06:35:50.482Z,9.00
2022-11-25T06:38:17.890Z,10.00
2022-11-25T06:40:45.301Z,9.75
2022-11-25T06:43:12.724Z,9.25
2022-11-25T06:45:40.168Z,7.00
2022-11-25T06:48:07.587Z,8.25
2022-11-25T06:50:36.305Z,8.00
2022-11-25T06:53:03.731Z,8.00
2022-11-25T06:55:31.403Z,8.25
2022-11-25T06:58:20.283Z,8.00
2022-11-25T07:00:46.236Z,6.50
2022-11-25T07:03:13.712Z,5.75
2022-11-25T07:05:42.436Z,8.25
2022-11-25T07:08:09.865Z,7.75
2022-11-25T07:10:37.268Z,8.25
2022-11-25T07:13:04.709Z,8.00
2022-11-25T07:15:32.129Z,8.25
2022-11-25T07:17:59.547Z,8.00
2022-11-25T07:20:27.743Z,9.00
2022-11-25T07:22:56.454Z,5.00
2022-11-25T07:25:29.365Z,7.50
2022-11-25T07:27:58.788Z,7.00
2022-11-25T07:31:21.786Z,8.00
2022-11-25T07:33:14.642Z,7.50
2022-11-25T07:35:42.092Z,8.50
2022-11-25T07:38:10.776Z,8.50
2022-11-25T07:40:38.197Z,7.50
2022-11-25T07:43:05.600Z,6.50
2022-11-25T07:45:33.021Z,7.25
2022-11-25T07:48:08.761Z,5.75
2022-11-25T07:50:36.183Z,8.00
2022-11-25T07:53:03.590Z,7.00
2022-11-25T07:55:32.307Z,7.00
2022-11-25T07:57:59.737Z,6.75
2022-11-25T08:00:27.305Z,6.25
2022-11-25T08:02:55.086Z,7.00
2022-11-25T08:05:22.554Z,7.25
2022-11-25T08:07:50.017Z,7.00
2022-11-25T08:10:17.503Z,5.50
2022-11-25T08:12:46.198Z,6.25
2022-11-25T08:15:13.687Z,6.25
2022-11-25T08:17:41.106Z,7.00
2022-11-25T08:20:09.434Z,8.00
2022-11-25T08:22:36.842Z,6.00
2022-11-25T08:25:04.352Z,6.25
2022-11-25T08:27:31.773Z,7.00
2022-11-25T08:30:00.579Z,7.00
2022-11-25T08:32:28.050Z,6.25
2022-11-25T08:34:55.468Z,7.75
2022-11-25T08:37:23.039Z,7.75
2022-11-25T08:39:53.282Z,6.50
2022-11-25T08:42:21.205Z,5.00
2022-11-25T08:44:52.606Z,6.00
2022-11-25T08:47:21.300Z,6.50
2022-11-25T08:49:51.492Z,6.25
2022-11-25T08:52:18.956Z,6.75
2022-11-25T08:54:46.395Z,6.75
2022-11-25T08:57:13.871Z,6.25
2022-11-25T08:59:41.328Z,7.00
2022-11-25T09:02:09.511Z,6.00
2022-11-25T09:04:38.356Z,7.00
2022-11-25T09:07:06.001Z,7.00
2022-11-25T09:09:33.497Z,4.50
2022-11-25T09:12:00.966Z,5.00
2022-11-25T09:14:28.428Z,9.00
2022-11-25T09:16:57.033Z,7.25
2022-11-25T09:19:24.450Z,7.25
2022-11-25T09:21:53.226Z,7.00
2022-11-25T09:24:20.633Z,8.50
2022-11-25T09:26:49.272Z,7.00
2022-11-25T09:29:16.682Z,8.00
2022-11-25T09:31:44.181Z,8.25
2022-11-25T09:34:11.706Z,8.50
2022-11-25T09:36:39.270Z,9.50
2022-11-25T09:39:08.133Z,8.00
2022-11-25T09:42:01.262Z,8.75
2022-11-25T09:44:53.338Z,9.25
2022-11-25T09:47:24.836Z,9.00
2022-11-25T09:50:00.940Z,9.25
2022-11-25T09:52:33.128Z,8.75
2022-11-25T09:55:06.328Z,9.50
2022-11-25T09:57:39.188Z,9.75
2022-11-25T10:00:07.650Z,10.00
2022-11-25T10:02:42.253Z,10.25
2022-11-25T10:05:13.107Z,5.25
2022-11-25T10:07:41.836Z,10.00
2022-11-25T10:10:16.520Z,9.25
2022-11-25T10:12:44.591Z,10.00
2022-11-25T10:15:15.036Z,9.25
2022-11-25T10:17:44.651Z,10.00
2022-11-25T10:20:15.027Z,10.00
2022-11-25T10:22:43.622Z,11.50
2022-11-25T10:25:16.063Z,11.00
2022-11-25T10:27:44.815Z,10.50
2022-11-25T10:30:16.473Z,9.00
2022-11-25T10:32:45.359Z,9.50
2022-11-25T10:35:18.353Z,10.00
2022-11-25T10:37:46.065Z,13.25
2022-11-25T10:40:16.529Z,9.50
2022-11-25T10:42:44.055Z,10.00
2022-11-25T10:45:11.668Z,12.25
2022-11-25T10:47:50.184Z,10.50
2022-11-25T10:50:18.617Z,9.50
2022-11-25T10:52:49.887Z,4.75
2022-11-25T10:55:19.453Z,10.00
2022-11-25T10:57:46.903Z,11.00
2022-11-25T11:00:29.587Z,12.00
2022-11-25T11:02:57.182Z,11.50
2022-11-25T11:05:25.565Z,12.00
2022-11-25T11:08:09.001Z,11.00
2022-11-25T11:10:37.770Z,11.25
2022-11-25T11:13:05.986Z,12.75
2022-11-25T11:15:34.121Z,10.00
2022-11-25T11:18:15.055Z,11.25
2022-11-25T11:20:46.462Z,11.50
2022-11-25T11:23:14.853Z,11.50
2022-11-25T11:25:43.954Z,10.50
2022-11-25T11:28:34.684Z,11.25
2022-11-25T11:31:03.352Z,11.75
2022-11-25T11:33:43.539Z,11.00
2022-11-25T11:36:26.585Z,11.00
2022-11-25T11:38:54.969Z,11.25
2022-11-25T11:41:32.040Z,11.25
2022-11-25T11:44:06.051Z,11.00
2022-11-25T11:46:43.237Z,10.00
2022-11-25T11:49:20.809Z,10.00
2022-11-25T11:51:52.685Z,9.00
2022-11-25T11:54:23.493Z,8.50
2022-11-25T11:56:55.609Z,9.00
2022-11-25T11:59:42.453Z,10.75
2022-11-25T12:02:21.014Z,9.50
2022-11-25T12:04:52.954Z,9.50
2022-11-25T12:07:22.135Z,11.00
2022-11-25T12:09:52.238Z,8.00
2022-11-25T12:12:20.924Z,9.25
2022-11-25T12:14:50.051Z,7.25
2022-11-25T12:17:19.029Z,11.00
2022-11-25T12:19:51.346Z,9.50
2022-11-25T12:22:20.464Z,7.00
2022-11-25T12:24:51.107Z,9.00
2022-11-25T12:27:19.870Z,7.25
2022-11-25T12:29:50.571Z,6.00
2022-11-25T12:32:31.385Z,8.00
2022-11-25T12:35:01.984Z,8.00
2022-11-25T12:37:32.870Z,8.00
2022-11-25T12:40:03.825Z,8.00
2022-11-25T12:42:31.398Z,7.00
2022-11-25T12:45:01.694Z,9.00
2022-11-25T12:47:29.109Z,8.00
2022-11-25T12:49:56.634Z,8.25
2022-11-25T12:52:40.287Z,7.50
2022-11-25T12:55:13.417Z,7.00
2022-11-25T12:57:59.727Z,8.25
2022-11-25T13:00:44.858Z,6.25
2022-11-25T13:03:31.773Z,8.25
2022-11-25T13:06:05.736Z,8.25
2022-11-25T13:08:45.633Z,8.00
2022-11-25T13:11:33.734Z,7.50
2022-11-25T13:14:03.202Z,7.75
2022-11-25T13:16:32.713Z,8.00
2022-11-25T13:19:00.521Z,8.00
2022-11-25T13:21:29.039Z,7.00
2022-11-25T13:23:57.183Z,6.25
2022-11-25T13:26:49.658Z,5.00
2022-11-25T13:30:00.865Z,7.50
2022-11-25T13:32:48.357Z,7.75
2022-11-25T13:35:37.746Z,7.00
2022-11-25T13:38:46.844Z,7.75
2022-11-25T13:41:34.491Z,6.75
2022-11-25T13:44:05.833Z,7.00
2022-11-25T13:46:38.300Z,7.50
2022-11-25T13:49:07.189Z,6.00
2022-11-25T13:51:34.600Z,7.50
2022-11-25T13:54:02.384Z,9.00
2022-11-25T13:56:30.631Z,7.00
2022-11-25T13:59:20.882Z,7.75
2022-11-25T14:01:54.763Z,6.00
2022-11-25T14:04:31.757Z,6.75
2022-11-25T14:07:04.910Z,8.00
2022-11-25T14:09:39.293Z,7.25
2022-11-25T14:12:34.481Z,8.25
2022-11-25T14:15:23.005Z,7.75
2022-11-25T14:18:12.451Z,7.25
2022-11-25T14:20:44.239Z,7.25
2022-11-25T14:23:46.129Z,7.00
2022-11-25T14:26:42.230Z,8.75
2022-11-25T14:29:05.181Z,6.50
2022-11-25T14:31:37.517Z,7.75
2022-11-25T14:34:07.716Z,6.00
2022-11-25T14:36:40.019Z,6.00
2022-11-25T14:39:09.866Z,7.00
2022-11-25T14:41:38.652Z,7.00
2022-11-25T14:44:06.796Z,5.00
2022-11-25T14:46:34.191Z,8.00
2022-11-25T14:49:03.317Z,7.00
2022-11-25T14:51:34.945Z,7.00
2022-11-25T14:54:04.928Z,8.00
2022-11-25T14:56:33.695Z,7.75
2022-11-25T14:59:01.122Z,7.00
2022-11-25T15:01:29.165Z,6.75
2022-11-25T15:04:04.071Z,6.00
2022-11-25T15:06:34.506Z,7.00
2022-11-25T15:09:01.939Z,7.00
2022-11-25T15:11:31.607Z,6.00
2022-11-25T15:14:00.172Z,6.00
2022-11-25T15:16:32.380Z,7.75
2022-11-25T15:19:00.580Z,8.75
2022-11-25T15:21:30.068Z,7.75
2022-11-25T15:23:57.506Z,8.25
2022-11-25T15:26:25.811Z,7.00
2022-11-25T15:28:56.839Z,5.50
2022-11-25T15:31:27.362Z,9.00
2022-11-25T15:33:57.527Z,7.00
2022-11-25T15:36:25.053Z,8.00
2022-11-25T15:38:52.484Z,7.50
2022-11-25T15:41:22.184Z,8.00
2022-11-25T15:43:50.244Z,7.00
2022-11-25T15:46:19.182Z,8.00
2022-11-25T15:48:47.327Z,7.50
2022-11-25T15:51:30.608Z,6.00
2022-11-25T15:53:59.649Z,6.50
2022-11-25T15:56:27.201Z,6.00
2022-11-25T15:58:58.773Z,5.25
2022-11-25T16:01:30.755Z,7.00
2022-11-25T16:04:10.510Z,6.50
2022-11-25T16:06:37.939Z,6.00
2022-11-25T16:09:05.897Z,6.00
2022-11-25T16:11:45.356Z,5.25
2022-11-25T16:14:19.697Z,5.50
2022-11-25T16:16:48.496Z,6.00
2022-11-25T16:19:17.566Z,6.25
2022-11-25T16:21:53.509Z,6.25
2022-11-25T16:24:33.365Z,7.00
2022-11-25T16:27:01.569Z,4.50
2022-11-25T16:29:31.561Z,6.25
2022-11-25T16:32:00.453Z,6.75
2022-11-25T16:34:27.977Z,7.00
2022-11-25T16:36:55.396Z,5.75
2022-11-25T16:39:22.807Z,7.75
2022-11-25T16:41:56.429Z,8.50
2022-11-25T16:44:24.658Z,9.75
2022-11-25T16:46:52.115Z,8.75
2022-11-25T16:49:21.114Z,8.75
2022-11-25T16:51:50.400Z,9.25
2022-11-25T16:54:18.456Z,8.75
2022-11-25T16:56:45.856Z,8.75
2022-11-25T16:59:15.833Z,8.00
2022-11-25T17:01:43.637Z,8.00
2022-11-25T17:04:12.293Z,7.50
2022-11-25T17:06:42.132Z,8.00
2022-11-25T17:09:09.588Z,8.50
2022-11-25T17:11:46.128Z,9.00
2022-11-25T17:14:25.693Z,8.00
2022-11-25T17:16:53.540Z,8.00
2022-11-25T17:19:21.240Z,9.75
2022-11-25T17:21:50.067Z,7.00
2022-11-25T17:24:18.700Z,8.25
2022-11-25T17:26:47.172Z,8.00
2022-11-25T17:29:17.824Z,6.00
2022-11-25T17:31:45.361Z,9.00
2022-11-25T17:34:17.314Z,6.00
2022-11-25T17:36:45.057Z,8.75
2022-11-25T17:39:14.300Z,8.25
2022-11-25T17:41:43.680Z,8.25
2022-11-25T17:44:19.532Z,8.00
2022-11-25T17:46:46.938Z,7.00
2022-11-25T17:49:14.917Z,8.00
2022-11-25T17:51:43.525Z,7.00
2022-11-25T17:54:10.979Z,8.50
2022-11-25T17:56:39.818Z,7.00
2022-11-25T17:59:11.840Z,8.50
2022-11-25T18:01:39.312Z,9.00
2022-11-25T18:04:16.522Z,8.00
2022-11-25T18:06:44.087Z,5.00
2022-11-25T18:09:11.659Z,8.00
2022-11-25T18:11:42.695Z,7.25
2022-11-25T18:14:14.421Z,8.00
2022-11-25T18:16:42.490Z,8.25
2022-11-25T18:19:12.260Z,6.25
2022-11-25T18:21:39.669Z,5.00
2022-11-25T18:24:07.165Z,7.25
2022-11-25T18:26:38.031Z,7.00
2022-11-25T18:29:07.967Z,7.75
2022-11-25T18:31:35.509Z,7.00
2022-11-25T18:34:02.939Z,7.00
2022-11-25T18:36:30.417Z,8.25
2022-11-25T18:38:57.913Z,7.75
2022-11-25T18:41:26.824Z,5.75
2022-11-25T18:43:54.237Z,8.00
2022-11-25T18:46:22.968Z,8.00
2022-11-25T18:48:53.106Z,6.75
2022-11-25T18:51:20.524Z,7.00
2022-11-25T18:53:47.937Z,5.00
2022-11-25T18:56:17.990Z,7.75
2022-11-25T18:58:46.806Z,7.00
2022-11-25T19:01:14.525Z,8.75
2022-11-25T19:03:43.342Z,6.00
2022-11-25T19:06:14.592Z,7.00
2022-11-25T19:08:42.037Z,7.00
2022-11-25T19:11:12.702Z,5.50
2022-11-25T19:13:40.137Z,6.75
2022-11-25T19:16:08.911Z,8.00
2022-11-25T19:18:36.603Z,8.00
2022-11-25T19:21:05.549Z,7.00
2022-11-25T19:23:35.865Z,7.75
2022-11-25T19:26:07.519Z,7.75
2022-11-25T19:28:34.933Z,7.75
2022-11-25T19:31:03.173Z,7.75
2022-11-25T19:33:33.020Z,7.00
2022-11-25T19:36:00.474Z,7.00
2022-11-25T19:38:30.915Z,7.00
2022-11-25T19:40:58.367Z,8.00
2022-11-25T19:43:27.012Z,7.50
2022-11-25T19:45:54.583Z,7.00
2022-11-25T19:48:22.195Z,8.00
2022-11-25T19:50:51.854Z,7.00
2022-11-25T19:53:20.216Z,7.50
2022-11-25T19:55:48.959Z,6.00
2022-11-25T19:58:16.398Z,6.75
2022-11-25T20:00:44.238Z,7.25
2022-11-25T20:03:14.227Z,6.75
2022-11-25T20:05:41.644Z,7.75
2022-11-25T20:08:11.460Z,6.75
2022-11-25T20:10:38.893Z,6.25
2022-11-25T20:13:08.224Z,6.00
2022-11-25T20:15:35.682Z,8.00
2022-11-25T20:18:03.083Z,7.00
2022-11-25T20:20:32.688Z,9.00
2022-11-25T20:23:01.102Z,7.00
2022-11-25T20:25:28.655Z,6.00
2022-11-25T20:27:56.059Z,8.50
2022-11-25T20:30:25.475Z,1.75
2022-11-25T20:32:52.878Z,8.50
2022-11-25T20:35:20.819Z,8.00
2022-11-25T20:38:00.217Z,7.00
2022-11-25T20:40:33.270Z,8.00
2022-11-25T20:43:00.729Z,7.25
2022-11-25T20:45:29.496Z,7.25
2022-11-25T20:47:58.879Z,6.50
2022-11-25T20:50:26.334Z,9.00
2022-11-25T20:52:53.762Z,8.50
2022-11-25T20:55:23.304Z,7.00
2022-11-25T20:57:51.691Z,8.25
2022-11-25T21:00:20.317Z,6.00
2022-11-25T21:02:49.108Z,7.75
2022-11-25T21:05:16.767Z,6.00
2022-11-25T21:07:44.227Z,5.75
2022-11-25T21:10:18.366Z,8.25
2022-11-25T21:12:45.769Z,8.75
2022-11-25T21:15:14.654Z,6.00
2022-11-25T21:17:42.081Z,8.00
2022-11-25T21:20:12.369Z,6.50
2022-11-25T21:22:41.319Z,6.75
2022-11-25T21:25:11.621Z,8.50
2022-11-25T21:27:39.024Z,8.50
2022-11-25T21:30:07.747Z,7.00
2022-11-25T21:32:35.169Z,7.50
2022-11-25T21:35:03.933Z,7.25
2022-11-25T21:37:33.438Z,7.00
2022-11-25T21:40:00.845Z,7.00
2022-11-25T21:42:28.286Z,8.00
2022-11-25T21:44:55.700Z,7.00
2022-11-25T21:47:24.110Z,8.00
2022-11-25T21:49:51.668Z,8.50
2022-11-25T21:52:19.162Z,7.50
2022-11-25T21:54:48.884Z,7.00
2022-11-25T21:57:16.853Z,7.00
2022-11-25T21:59:44.998Z,7.75
2022-11-25T22:02:16.544Z,9.00
2022-11-25T22:04:43.993Z,9.00
2022-11-25T22:07:11.435Z,7.75
2022-11-25T22:09:38.926Z,4.00
2022-11-25T22:12:08.044Z,5.50
2022-11-25T22:14:38.227Z,8.50
2022-11-25T22:17:07.401Z,7.75
2022-11-25T22:19:34.802Z,7.25
2022-11-25T22:22:02.220Z,8.50
2022-11-25T22:24:30.617Z,7.00
2022-11-25T22:27:00.052Z,7.50
2022-11-25T22:29:35.619Z,7.00
2022-11-25T22:32:07.017Z,9.00
2022-11-25T22:34:37.396Z,9.00
2022-11-25T22:37:05.148Z,8.50
2022-11-25T22:39:32.574Z,8.25
2022-11-25T22:42:03.610Z,7.75
2022-11-25T22:44:33.891Z,9.00
2022-11-25T22:47:01.316Z,5.00
2022-11-25T22:49:31.349Z,8.75
2022-11-25T22:51:58.960Z,8.00
2022-11-25T22:54:26.361Z,8.25
2022-11-25T22:56:53.820Z,7.75
2022-11-25T22:59:21.231Z,8.00
2022-11-25T23:01:49.989Z,8.00
2022-11-25T23:04:18.603Z,8.75
2022-11-25T23:06:46.073Z,9.00
2022-11-25T23:09:15.087Z,8.00
2022-11-25T23:11:42.568Z,8.75
2022-11-25T23:14:11.149Z,8.00
2022-11-25T23:16:38.892Z,9.75
2022-11-25T23:19:07.844Z,8.00
2022-11-25T23:21:35.241Z,8.25
2022-11-25T23:24:02.695Z,7.50
2022-11-25T23:26:35.038Z,5.50
2022-11-25T23:29:02.747Z,7.50
2022-11-25T23:31:30.234Z,8.00
2022-11-25T23:33:57.741Z,7.00
2022-11-25T23:36:27.138Z,5.00
2022-11-25T23:38:55.765Z,8.25
2022-11-25T23:41:23.959Z,7.25
2022-11-25T23:43:51.404Z,5.25
2022-11-25T23:46:20.083Z,8.00
2022-11-25T23:48:52.939Z,7.00
2022-11-25T23:51:20.992Z,6.00
2022-11-25T23:53:49.774Z,7.00
2022-11-25T23:56:17.231Z,7.00
2022-11-25T23:58:44.697Z,7.00
